sensor_id;sensor_type;location;lat;lon;timestamp;P1;durP1;ratioP1;P2;durP2;ratioP2
18716;SDS011;9487;50.892;6.906;2022-09-01T00:00:04;3.63;;;3.20;;
18716;SDS011;9487;50.892;6.906;2022-09-01T00:02:36;3.23;;;2.97;;
18716;SDS011;9487;50.892;6.906;2022-09-01T00:05:03;3.43;;;3.10;;
18716;SDS011;9487;50.892;6.906;2022-09-01T00:07:31;3.47;;;3.13;;
18716;SDS011;9487;50.892;6.906;2022-09-01T00:10:00;3.17;;;2.97;;
18716;SDS011;9487;50.892;6.906;2022-09-01T00:12:27;2.97;;;2.77;;
18716;SDS011;9487;50.892;6.906;2022-09-01T00:14:55;3.53;;;2.80;;
18716;SDS011;9487;50.892;6.906;2022-09-01T00:17:23;3.00;;;2.80;;
18716;SDS011;9487;50.892;6.906;2022-09-01T00:19:51;2.90;;;2.60;;
18716;SDS011;9487;50.892;6.906;2022-09-01T00:22:18;2.80;;;2.50;;
18716;SDS011;9487;50.892;6.906;2022-09-01T00:24:45;2.80;;;2.60;;
18716;SDS011;9487;50.892;6.906;2022-09-01T00:27:13;2.77;;;2.57;;
18716;SDS011;9487;50.892;6.906;2022-09-01T00:29:39;2.60;;;2.40;;
18716;SDS011;9487;50.892;6.906;2022-09-01T00:32:06;2.60;;;2.40;;
18716;SDS011;9487;50.892;6.906;2022-09-01T00:34:33;3.13;;;2.67;;
18716;SDS011;9487;50.892;6.906;2022-09-01T00:37:01;3.30;;;2.60;;
18716;SDS011;9487;50.892;6.906;2022-09-01T00:39:28;2.70;;;2.43;;
18716;SDS011;9487;50.892;6.906;2022-09-01T00:41:55;2.70;;;2.50;;
18716;SDS011;9487;50.892;6.906;2022-09-01T00:44:23;4.27;;;2.40;;
18716;SDS011;9487;50.892;6.906;2022-09-01T00:46:52;2.70;;;2.50;;
18716;SDS011;9487;50.892;6.906;2022-09-01T00:49:21;2.80;;;2.60;;
18716;SDS011;9487;50.892;6.906;2022-09-01T00:51:54;3.00;;;2.70;;
18716;SDS011;9487;50.892;6.906;2022-09-01T00:54:26;2.60;;;2.40;;
18716;SDS011;9487;50.892;6.906;2022-09-01T00:56:57;3.37;;;2.83;;
18716;SDS011;9487;50.892;6.906;2022-09-01T00:59:24;2.80;;;2.60;;
18716;SDS011;9487;50.892;6.906;2022-09-01T01:01:53;2.77;;;2.57;;
18716;SDS011;9487;50.892;6.906;2022-09-01T01:04:20;2.93;;;2.73;;
18716;SDS011;9487;50.892;6.906;2022-09-01T01:06:49;3.00;;;2.80;;
18716;SDS011;9487;50.892;6.906;2022-09-01T01:09:23;3.07;;;2.87;;
18716;SDS011;9487;50.892;6.906;2022-09-01T01:11:53;3.33;;;2.60;;
18716;SDS011;9487;50.892;6.906;2022-09-01T01:14:21;3.43;;;2.60;;
18716;SDS011;9487;50.892;6.906;2022-09-01T01:16:48;3.70;;;2.67;;
18716;SDS011;9487;50.892;6.906;2022-09-01T01:19:18;2.80;;;2.60;;
18716;SDS011;9487;50.892;6.906;2022-09-01T01:22:09;2.57;;;2.37;;
18716;SDS011;9487;50.892;6.906;2022-09-01T01:25:01;4.10;;;2.70;;
18716;SDS011;9487;50.892;6.906;2022-09-01T01:27:30;2.70;;;2.50;;
18716;SDS011;9487;50.892;6.906;2022-09-01T01:29:59;3.40;;;2.70;;
18716;SDS011;9487;50.892;6.906;2022-09-01T01:32:26;2.90;;;2.67;;
18716;SDS011;9487;50.892;6.906;2022-09-01T01:34:53;3.23;;;2.50;;
18716;SDS011;9487;50.892;6.906;2022-09-01T01:37:20;2.70;;;2.50;;
18716;SDS011;9487;50.892;6.906;2022-09-01T01:39:49;2.70;;;2.37;;
18716;SDS011;9487;50.892;6.906;2022-09-01T01:42:18;3.17;;;2.30;;
18716;SDS011;9487;50.892;6.906;2022-09-01T01:44:45;3.67;;;2.80;;
18716;SDS011;9487;50.892;6.906;2022-09-01T01:47:13;2.90;;;2.70;;
18716;SDS011;9487;50.892;6.906;2022-09-01T01:49:41;2.70;;;2.50;;
18716;SDS011;9487;50.892;6.906;2022-09-01T01:52:09;3.00;;;2.70;;
18716;SDS011;9487;50.892;6.906;2022-09-01T01:54:40;2.73;;;2.53;;
18716;SDS011;9487;50.892;6.906;2022-09-01T01:57:07;2.70;;;2.50;;
18716;SDS011;9487;50.892;6.906;2022-09-01T01:59:36;4.10;;;2.70;;
18716;SDS011;9487;50.892;6.906;2022-09-01T02:02:04;2.60;;;2.40;;
18716;SDS011;9487;50.892;6.906;2022-09-01T02:04:32;2.57;;;2.37;;
18716;SDS011;9487;50.892;6.906;2022-09-01T02:06:59;2.63;;;2.43;;
18716;SDS011;9487;50.892;6.906;2022-09-01T02:09:26;2.27;;;2.13;;
18716;SDS011;9487;50.892;6.906;2022-09-01T02:11:53;2.70;;;2.50;;
18716;SDS011;9487;50.892;6.906;2022-09-01T02:14:21;3.10;;;2.70;;
18716;SDS011;9487;50.892;6.906;2022-09-01T02:16:50;2.60;;;2.40;;
18716;SDS011;9487;50.892;6.906;2022-09-01T02:19:20;4.20;;;2.70;;
18716;SDS011;9487;50.892;6.906;2022-09-01T02:21:47;2.60;;;2.40;;
18716;SDS011;9487;50.892;6.906;2022-09-01T02:24:20;5.07;;;2.77;;
18716;SDS011;9487;50.892;6.906;2022-09-01T02:26:50;2.70;;;2.50;;
18716;SDS011;9487;50.892;6.906;2022-09-01T02:29:18;6.03;;;2.70;;
18716;SDS011;9487;50.892;6.906;2022-09-01T02:31:47;6.07;;;2.90;;
18716;SDS011;9487;50.892;6.906;2022-09-01T02:34:17;2.97;;;2.77;;
18716;SDS011;9487;50.892;6.906;2022-09-01T02:36:48;2.70;;;2.50;;
18716;SDS011;9487;50.892;6.906;2022-09-01T02:39:17;3.00;;;2.60;;
18716;SDS011;9487;50.892;6.906;2022-09-01T02:41:47;3.10;;;2.90;;
18716;SDS011;9487;50.892;6.906;2022-09-01T02:44:15;3.00;;;2.67;;
18716;SDS011;9487;50.892;6.906;2022-09-01T02:46:46;2.90;;;2.70;;
18716;SDS011;9487;50.892;6.906;2022-09-01T02:49:16;3.10;;;2.80;;
18716;SDS011;9487;50.892;6.906;2022-09-01T02:51:50;3.90;;;3.20;;
18716;SDS011;9487;50.892;6.906;2022-09-01T02:54:18;3.03;;;2.77;;
18716;SDS011;9487;50.892;6.906;2022-09-01T02:56:49;2.80;;;2.60;;
18716;SDS011;9487;50.892;6.906;2022-09-01T02:59:20;4.37;;;2.67;;
18716;SDS011;9487;50.892;6.906;2022-09-01T03:01:49;2.90;;;2.60;;
18716;SDS011;9487;50.892;6.906;2022-09-01T03:04:19;3.77;;;2.57;;
18716;SDS011;9487;50.892;6.906;2022-09-01T03:06:48;3.20;;;2.90;;
18716;SDS011;9487;50.892;6.906;2022-09-01T03:09:16;3.33;;;2.60;;
18716;SDS011;9487;50.892;6.906;2022-09-01T03:11:45;3.00;;;2.80;;
18716;SDS011;9487;50.892;6.906;2022-09-01T03:14:13;2.70;;;2.50;;
18716;SDS011;9487;50.892;6.906;2022-09-01T03:16:41;2.57;;;2.37;;
18716;SDS011;9487;50.892;6.906;2022-09-01T03:19:08;3.80;;;2.80;;
18716;SDS011;9487;50.892;6.906;2022-09-01T03:21:38;3.23;;;2.93;;
18716;SDS011;9487;50.892;6.906;2022-09-01T03:24:06;2.97;;;2.77;;
18716;SDS011;9487;50.892;6.906;2022-09-01T03:26:36;2.80;;;2.60;;
18716;SDS011;9487;50.892;6.906;2022-09-01T03:29:04;2.83;;;2.60;;
18716;SDS011;9487;50.892;6.906;2022-09-01T03:31:32;2.73;;;2.53;;
18716;SDS011;9487;50.892;6.906;2022-09-01T03:34:00;2.80;;;2.60;;
18716;SDS011;9487;50.892;6.906;2022-09-01T03:36:30;2.90;;;2.50;;
18716;SDS011;9487;50.892;6.906;2022-09-01T03:38:59;2.87;;;2.67;;
18716;SDS011;9487;50.892;6.906;2022-09-01T03:41:27;3.03;;;2.80;;
18716;SDS011;9487;50.892;6.906;2022-09-01T03:43:55;3.23;;;2.93;;
18716;SDS011;9487;50.892;6.906;2022-09-01T03:46:23;2.90;;;2.70;;
18716;SDS011;9487;50.892;6.906;2022-09-01T03:48:51;3.27;;;3.03;;
18716;SDS011;9487;50.892;6.906;2022-09-01T03:51:19;3.10;;;2.80;;
18716;SDS011;9487;50.892;6.906;2022-09-01T03:53:48;3.30;;;3.00;;
18716;SDS011;9487;50.892;6.906;2022-09-01T03:56:19;3.40;;;2.87;;
18716;SDS011;9487;50.892;6.906;2022-09-01T03:58:48;2.93;;;2.63;;
18716;SDS011;9487;50.892;6.906;2022-09-01T04:01:16;3.00;;;2.73;;
18716;SDS011;9487;50.892;6.906;2022-09-01T04:03:44;3.27;;;2.80;;
18716;SDS011;9487;50.892;6.906;2022-09-01T04:06:13;3.43;;;2.80;;
18716;SDS011;9487;50.892;6.906;2022-09-01T04:08:42;4.17;;;2.60;;
18716;SDS011;9487;50.892;6.906;2022-09-01T04:11:12;3.90;;;2.73;;
18716;SDS011;9487;50.892;6.906;2022-09-01T04:13:44;3.33;;;3.00;;
18716;SDS011;9487;50.892;6.906;2022-09-01T04:16:18;3.10;;;2.80;;
18716;SDS011;9487;50.892;6.906;2022-09-01T04:19:04;3.20;;;2.90;;
18716;SDS011;9487;50.892;6.906;2022-09-01T04:21:40;2.70;;;2.50;;
18716;SDS011;9487;50.892;6.906;2022-09-01T04:24:08;3.83;;;2.80;;
18716;SDS011;9487;50.892;6.906;2022-09-01T04:26:37;3.70;;;3.10;;
18716;SDS011;9487;50.892;6.906;2022-09-01T04:29:06;3.23;;;2.63;;
18716;SDS011;9487;50.892;6.906;2022-09-01T04:31:36;2.93;;;2.63;;
18716;SDS011;9487;50.892;6.906;2022-09-01T04:34:05;2.97;;;2.77;;
18716;SDS011;9487;50.892;6.906;2022-09-01T04:36:38;3.37;;;3.07;;
18716;SDS011;9487;50.892;6.906;2022-09-01T04:39:07;3.33;;;3.00;;
18716;SDS011;9487;50.892;6.906;2022-09-01T04:41:36;3.67;;;2.60;;
18716;SDS011;9487;50.892;6.906;2022-09-01T04:44:07;3.13;;;2.93;;
18716;SDS011;9487;50.892;6.906;2022-09-01T04:46:36;4.20;;;2.97;;
18716;SDS011;9487;50.892;6.906;2022-09-01T04:49:06;4.00;;;3.03;;
18716;SDS011;9487;50.892;6.906;2022-09-01T04:51:36;3.10;;;2.80;;
18716;SDS011;9487;50.892;6.906;2022-09-01T04:54:03;4.13;;;2.97;;
18716;SDS011;9487;50.892;6.906;2022-09-01T04:56:36;4.83;;;3.07;;
18716;SDS011;9487;50.892;6.906;2022-09-01T04:59:04;3.67;;;2.73;;
18716;SDS011;9487;50.892;6.906;2022-09-01T05:01:33;3.90;;;3.10;;
18716;SDS011;9487;50.892;6.906;2022-09-01T05:04:07;3.00;;;2.70;;
18716;SDS011;9487;50.892;6.906;2022-09-01T05:06:38;3.80;;;2.53;;
18716;SDS011;9487;50.892;6.906;2022-09-01T05:09:06;4.03;;;3.13;;
18716;SDS011;9487;50.892;6.906;2022-09-01T05:11:35;3.20;;;2.60;;
18716;SDS011;9487;50.892;6.906;2022-09-01T05:14:03;3.20;;;2.77;;
18716;SDS011;9487;50.892;6.906;2022-09-01T05:16:31;2.93;;;2.73;;
18716;SDS011;9487;50.892;6.906;2022-09-01T05:19:02;3.80;;;2.93;;
18716;SDS011;9487;50.892;6.906;2022-09-01T05:21:29;5.00;;;3.10;;
18716;SDS011;9487;50.892;6.906;2022-09-01T05:23:56;5.23;;;2.77;;
18716;SDS011;9487;50.892;6.906;2022-09-01T05:26:26;3.27;;;2.80;;
18716;SDS011;9487;50.892;6.906;2022-09-01T05:28:56;3.30;;;3.00;;
18716;SDS011;9487;50.892;6.906;2022-09-01T05:31:25;3.50;;;3.20;;
18716;SDS011;9487;50.892;6.906;2022-09-01T05:34:00;4.43;;;3.00;;
18716;SDS011;9487;50.892;6.906;2022-09-01T05:36:27;4.70;;;3.27;;
18716;SDS011;9487;50.892;6.906;2022-09-01T05:38:57;5.07;;;2.80;;
18716;SDS011;9487;50.892;6.906;2022-09-01T05:41:26;5.40;;;3.13;;
18716;SDS011;9487;50.892;6.906;2022-09-01T05:43:53;4.67;;;3.30;;
18716;SDS011;9487;50.892;6.906;2022-09-01T05:46:21;3.30;;;2.87;;
18716;SDS011;9487;50.892;6.906;2022-09-01T05:48:51;4.13;;;3.40;;
18716;SDS011;9487;50.892;6.906;2022-09-01T05:51:21;3.53;;;2.97;;
18716;SDS011;9487;50.892;6.906;2022-09-01T05:53:50;3.53;;;3.23;;
18716;SDS011;9487;50.892;6.906;2022-09-01T05:56:20;3.40;;;3.10;;
18716;SDS011;9487;50.892;6.906;2022-09-01T05:58:49;4.10;;;2.70;;
18716;SDS011;9487;50.892;6.906;2022-09-01T06:01:18;3.47;;;2.60;;
18716;SDS011;9487;50.892;6.906;2022-09-01T06:03:47;3.97;;;2.90;;
18716;SDS011;9487;50.892;6.906;2022-09-01T06:06:18;2.97;;;2.67;;
18716;SDS011;9487;50.892;6.906;2022-09-01T06:08:47;2.90;;;2.53;;
18716;SDS011;9487;50.892;6.906;2022-09-01T06:11:14;2.83;;;2.33;;
18716;SDS011;9487;50.892;6.906;2022-09-01T06:13:42;3.03;;;2.57;;
18716;SDS011;9487;50.892;6.906;2022-09-01T06:16:11;2.47;;;2.27;;
18716;SDS011;9487;50.892;6.906;2022-09-01T06:18:40;4.07;;;2.50;;
18716;SDS011;9487;50.892;6.906;2022-09-01T06:21:07;4.93;;;2.80;;
18716;SDS011;9487;50.892;6.906;2022-09-01T06:23:37;2.80;;;2.50;;
18716;SDS011;9487;50.892;6.906;2022-09-01T06:26:04;3.07;;;2.37;;
18716;SDS011;9487;50.892;6.906;2022-09-01T06:28:32;3.77;;;2.30;;
18716;SDS011;9487;50.892;6.906;2022-09-01T06:30:59;3.13;;;2.37;;
18716;SDS011;9487;50.892;6.906;2022-09-01T06:33:31;2.50;;;2.30;;
18716;SDS011;9487;50.892;6.906;2022-09-01T06:36:00;3.17;;;2.10;;
18716;SDS011;9487;50.892;6.906;2022-09-01T06:38:28;2.27;;;2.07;;
18716;SDS011;9487;50.892;6.906;2022-09-01T06:41:00;2.90;;;2.00;;
18716;SDS011;9487;50.892;6.906;2022-09-01T06:43:28;2.20;;;2.00;;
18716;SDS011;9487;50.892;6.906;2022-09-01T06:45:55;2.33;;;2.00;;
18716;SDS011;9487;50.892;6.906;2022-09-01T06:48:26;3.30;;;2.27;;
18716;SDS011;9487;50.892;6.906;2022-09-01T06:50:54;4.40;;;2.20;;
18716;SDS011;9487;50.892;6.906;2022-09-01T06:53:27;2.13;;;1.93;;
18716;SDS011;9487;50.892;6.906;2022-09-01T06:55:56;2.37;;;2.17;;
18716;SDS011;9487;50.892;6.906;2022-09-01T06:58:25;2.87;;;2.07;;
18716;SDS011;9487;50.892;6.906;2022-09-01T07:00:52;3.77;;;2.30;;
18716;SDS011;9487;50.892;6.906;2022-09-01T07:03:19;2.27;;;2.07;;
18716;SDS011;9487;50.892;6.906;2022-09-01T07:05:49;4.50;;;2.43;;
18716;SDS011;9487;50.892;6.906;2022-09-01T07:08:17;5.40;;;2.90;;
18716;SDS011;9487;50.892;6.906;2022-09-01T07:10:46;2.80;;;2.10;;
18716;SDS011;9487;50.892;6.906;2022-09-01T07:13:15;3.60;;;2.13;;
18716;SDS011;9487;50.892;6.906;2022-09-01T07:15:48;2.50;;;2.13;;
18716;SDS011;9487;50.892;6.906;2022-09-01T07:18:17;5.37;;;2.13;;
18716;SDS011;9487;50.892;6.906;2022-09-01T07:20:45;3.00;;;2.60;;
18716;SDS011;9487;50.892;6.906;2022-09-01T07:23:13;3.10;;;2.13;;
18716;SDS011;9487;50.892;6.906;2022-09-01T07:25:41;3.30;;;2.43;;
18716;SDS011;9487;50.892;6.906;2022-09-01T07:28:10;2.63;;;2.37;;
18716;SDS011;9487;50.892;6.906;2022-09-01T07:30:39;3.23;;;2.20;;
18716;SDS011;9487;50.892;6.906;2022-09-01T07:33:09;4.63;;;2.03;;
18716;SDS011;9487;50.892;6.906;2022-09-01T07:35:37;3.43;;;2.20;;
18716;SDS011;9487;50.892;6.906;2022-09-01T07:38:06;2.30;;;2.10;;
18716;SDS011;9487;50.892;6.906;2022-09-01T07:40:33;3.53;;;2.50;;
18716;SDS011;9487;50.892;6.906;2022-09-01T07:43:03;3.30;;;2.03;;
18716;SDS011;9487;50.892;6.906;2022-09-01T07:45:32;5.23;;;2.13;;
18716;SDS011;9487;50.892;6.906;2022-09-01T07:48:01;2.97;;;2.53;;
18716;SDS011;9487;50.892;6.906;2022-09-01T07:50:31;3.67;;;2.10;;
18716;SDS011;9487;50.892;6.906;2022-09-01T07:52:59;4.77;;;2.13;;
18716;SDS011;9487;50.892;6.906;2022-09-01T07:55:26;4.33;;;1.90;;
18716;SDS011;9487;50.892;6.906;2022-09-01T07:57:53;3.23;;;1.70;;
18716;SDS011;9487;50.892;6.906;2022-09-01T08:00:21;2.83;;;2.00;;
18716;SDS011;9487;50.892;6.906;2022-09-01T08:02:48;3.57;;;1.80;;
18716;SDS011;9487;50.892;6.906;2022-09-01T08:05:16;2.30;;;1.30;;
18716;SDS011;9487;50.892;6.906;2022-09-01T08:07:47;5.77;;;1.70;;
18716;SDS011;9487;50.892;6.906;2022-09-01T08:10:14;2.63;;;1.80;;
18716;SDS011;9487;50.892;6.906;2022-09-01T08:12:41;2.17;;;1.40;;
18716;SDS011;9487;50.892;6.906;2022-09-01T08:15:08;4.23;;;1.97;;
18716;SDS011;9487;50.892;6.906;2022-09-01T08:17:37;3.37;;;1.60;;
18716;SDS011;9487;50.892;6.906;2022-09-01T08:20:05;2.80;;;1.70;;
18716;SDS011;9487;50.892;6.906;2022-09-01T08:22:33;3.17;;;1.73;;
18716;SDS011;9487;50.892;6.906;2022-09-01T08:25:04;4.50;;;1.80;;
18716;SDS011;9487;50.892;6.906;2022-09-01T08:27:32;3.90;;;1.80;;
18716;SDS011;9487;50.892;6.906;2022-09-01T08:30:03;5.73;;;2.07;;
18716;SDS011;9487;50.892;6.906;2022-09-01T08:32:31;2.40;;;1.70;;
18716;SDS011;9487;50.892;6.906;2022-09-01T08:34:58;2.67;;;2.10;;
18716;SDS011;9487;50.892;6.906;2022-09-01T08:37:26;3.43;;;1.80;;
18716;SDS011;9487;50.892;6.906;2022-09-01T08:39:53;3.10;;;1.60;;
18716;SDS011;9487;50.892;6.906;2022-09-01T08:42:25;3.50;;;2.50;;
18716;SDS011;9487;50.892;6.906;2022-09-01T08:45:07;4.27;;;2.10;;
18716;SDS011;9487;50.892;6.906;2022-09-01T08:47:40;5.60;;;2.80;;
18716;SDS011;9487;50.892;6.906;2022-09-01T08:50:07;3.70;;;2.17;;
18716;SDS011;9487;50.892;6.906;2022-09-01T08:52:36;4.07;;;2.27;;
18716;SDS011;9487;50.892;6.906;2022-09-01T08:55:06;2.60;;;1.93;;
18716;SDS011;9487;50.892;6.906;2022-09-01T08:57:41;4.13;;;2.00;;
18716;SDS011;9487;50.892;6.906;2022-09-01T09:00:11;4.83;;;2.20;;
18716;SDS011;9487;50.892;6.906;2022-09-01T09:02:42;3.00;;;2.30;;
18716;SDS011;9487;50.892;6.906;2022-09-01T09:05:22;3.33;;;1.90;;
18716;SDS011;9487;50.892;6.906;2022-09-01T09:10:57;4.30;;;2.10;;
18716;SDS011;9487;50.892;6.906;2022-09-01T09:13:33;2.83;;;1.90;;
18716;SDS011;9487;50.892;6.906;2022-09-01T09:16:07;2.53;;;1.93;;
18716;SDS011;9487;50.892;6.906;2022-09-01T09:18:39;3.20;;;2.20;;
18716;SDS011;9487;50.892;6.906;2022-09-01T09:21:10;2.77;;;1.87;;
18716;SDS011;9487;50.892;6.906;2022-09-01T09:23:42;4.30;;;1.77;;
18716;SDS011;9487;50.892;6.906;2022-09-01T09:26:13;5.47;;;2.10;;
18716;SDS011;9487;50.892;6.906;2022-09-01T09:28:46;3.23;;;2.07;;
18716;SDS011;9487;50.892;6.906;2022-09-01T09:31:24;4.17;;;1.97;;
18716;SDS011;9487;50.892;6.906;2022-09-01T09:33:52;3.33;;;2.20;;
18716;SDS011;9487;50.892;6.906;2022-09-01T09:36:20;3.10;;;1.70;;
18716;SDS011;9487;50.892;6.906;2022-09-01T09:38:59;6.30;;;2.10;;
18716;SDS011;9487;50.892;6.906;2022-09-01T09:41:30;2.10;;;1.60;;
18716;SDS011;9487;50.892;6.906;2022-09-01T09:43:59;1.90;;;1.60;;
18716;SDS011;9487;50.892;6.906;2022-09-01T09:46:33;2.70;;;1.87;;
18716;SDS011;9487;50.892;6.906;2022-09-01T09:49:05;2.40;;;1.77;;
18716;SDS011;9487;50.892;6.906;2022-09-01T09:51:38;2.20;;;1.70;;
18716;SDS011;9487;50.892;6.906;2022-09-01T09:54:10;3.50;;;1.50;;
18716;SDS011;9487;50.892;6.906;2022-09-01T09:56:39;3.13;;;1.90;;
18716;SDS011;9487;50.892;6.906;2022-09-01T09:59:16;2.20;;;2.00;;
18716;SDS011;9487;50.892;6.906;2022-09-01T10:01:46;2.27;;;1.90;;
18716;SDS011;9487;50.892;6.906;2022-09-01T10:04:30;4.07;;;1.95;;
18716;SDS011;9487;50.892;6.906;2022-09-01T10:06:59;2.03;;;1.77;;
18716;SDS011;9487;50.892;6.906;2022-09-01T10:09:33;5.00;;;2.30;;
18716;SDS011;9487;50.892;6.906;2022-09-01T10:12:02;2.92;;;2.10;;
18716;SDS011;9487;50.892;6.906;2022-09-01T10:14:34;2.45;;;2.05;;
18716;SDS011;9487;50.892;6.906;2022-09-01T10:17:08;1.98;;;1.70;;
18716;SDS011;9487;50.892;6.906;2022-09-01T10:19:39;2.30;;;2.10;;
18716;SDS011;9487;50.892;6.906;2022-09-01T10:22:18;2.75;;;1.77;;
18716;SDS011;9487;50.892;6.906;2022-09-01T10:24:45;2.83;;;1.90;;
18716;SDS011;9487;50.892;6.906;2022-09-01T10:27:15;3.85;;;2.00;;
18716;SDS011;9487;50.892;6.906;2022-09-01T10:29:47;2.78;;;1.60;;
18716;SDS011;9487;50.892;6.906;2022-09-01T10:32:20;2.38;;;1.60;;
18716;SDS011;9487;50.892;6.906;2022-09-01T10:34:52;2.53;;;2.10;;
18716;SDS011;9487;50.892;6.906;2022-09-01T10:37:20;2.67;;;1.80;;
18716;SDS011;9487;50.892;6.906;2022-09-01T10:42:38;1.88;;;1.77;;
18716;SDS011;9487;50.892;6.906;2022-09-01T10:45:08;2.85;;;1.55;;
18716;SDS011;9487;50.892;6.906;2022-09-01T10:47:44;3.35;;;1.70;;
18716;SDS011;9487;50.892;6.906;2022-09-01T10:50:26;3.15;;;1.83;;
18716;SDS011;9487;50.892;6.906;2022-09-01T10:53:00;1.98;;;1.88;;
18716;SDS011;9487;50.892;6.906;2022-09-01T10:55:42;1.80;;;1.70;;
18716;SDS011;9487;50.892;6.906;2022-09-01T10:58:34;2.22;;;1.60;;
18716;SDS011;9487;50.892;6.906;2022-09-01T11:01:11;3.83;;;2.05;;
18716;SDS011;9487;50.892;6.906;2022-09-01T11:03:48;1.90;;;1.70;;
18716;SDS011;9487;50.892;6.906;2022-09-01T11:09:24;3.88;;;1.90;;
18716;SDS011;9487;50.892;6.906;2022-09-01T11:12:04;2.00;;;1.67;;
18716;SDS011;9487;50.892;6.906;2022-09-01T11:14:46;2.20;;;1.83;;
18716;SDS011;9487;50.892;6.906;2022-09-01T11:17:17;2.50;;;1.98;;
18716;SDS011;9487;50.892;6.906;2022-09-01T11:19:53;2.67;;;2.30;;
18716;SDS011;9487;50.892;6.906;2022-09-01T11:22:29;2.97;;;2.17;;
18716;SDS011;9487;50.892;6.906;2022-09-01T11:28:09;2.38;;;2.17;;
18716;SDS011;9487;50.892;6.906;2022-09-01T11:31:24;4.40;;;1.77;;
18716;SDS011;9487;50.892;6.906;2022-09-01T11:34:15;2.63;;;2.42;;
18716;SDS011;9487;50.892;6.906;2022-09-01T11:36:50;2.25;;;2.00;;
18716;SDS011;9487;50.892;6.906;2022-09-01T11:39:26;2.50;;;2.30;;
18716;SDS011;9487;50.892;6.906;2022-09-01T11:41:57;2.33;;;2.10;;
18716;SDS011;9487;50.892;6.906;2022-09-01T11:44:30;3.08;;;2.30;;
18716;SDS011;9487;50.892;6.906;2022-09-01T11:47:06;2.20;;;2.00;;
18716;SDS011;9487;50.892;6.906;2022-09-01T11:49:38;2.58;;;2.38;;
18716;SDS011;9487;50.892;6.906;2022-09-01T11:52:12;2.85;;;2.40;;
18716;SDS011;9487;50.892;6.906;2022-09-01T11:54:42;6.00;;;2.13;;
18716;SDS011;9487;50.892;6.906;2022-09-01T11:57:17;3.90;;;2.63;;
18716;SDS011;9487;50.892;6.906;2022-09-01T11:59:46;3.97;;;2.47;;
18716;SDS011;9487;50.892;6.906;2022-09-01T12:02:16;2.83;;;2.20;;
18716;SDS011;9487;50.892;6.906;2022-09-01T12:04:46;2.35;;;2.20;;
18716;SDS011;9487;50.892;6.906;2022-09-01T12:07:23;2.65;;;2.50;;
18716;SDS011;9487;50.892;6.906;2022-09-01T12:09:53;3.15;;;2.30;;
18716;SDS011;9487;50.892;6.906;2022-09-01T12:12:25;3.20;;;2.33;;
18716;SDS011;9487;50.892;6.906;2022-09-01T12:14:58;2.78;;;2.58;;
18716;SDS011;9487;50.892;6.906;2022-09-01T12:17:26;2.75;;;2.55;;
18716;SDS011;9487;50.892;6.906;2022-09-01T12:19:54;2.80;;;2.60;;
18716;SDS011;9487;50.892;6.906;2022-09-01T12:22:21;3.08;;;2.67;;
18716;SDS011;9487;50.892;6.906;2022-09-01T12:24:49;2.42;;;2.22;;
18716;SDS011;9487;50.892;6.906;2022-09-01T12:27:17;2.63;;;2.42;;
18716;SDS011;9487;50.892;6.906;2022-09-01T12:29:45;3.20;;;2.95;;
18716;SDS011;9487;50.892;6.906;2022-09-01T12:32:12;2.50;;;2.30;;
18716;SDS011;9487;50.892;6.906;2022-09-01T12:34:41;3.05;;;2.83;;
18716;SDS011;9487;50.892;6.906;2022-09-01T12:37:18;4.00;;;2.88;;
18716;SDS011;9487;50.892;6.906;2022-09-01T12:39:47;3.05;;;2.85;;
18716;SDS011;9487;50.892;6.906;2022-09-01T12:42:22;2.70;;;2.50;;
18716;SDS011;9487;50.892;6.906;2022-09-01T12:44:53;2.88;;;2.67;;
18716;SDS011;9487;50.892;6.906;2022-09-01T12:53:16;3.47;;;2.67;;
18716;SDS011;9487;50.892;6.906;2022-09-01T12:58:46;3.40;;;2.80;;
18716;SDS011;9487;50.892;6.906;2022-09-01T13:01:29;5.18;;;2.58;;
18716;SDS011;9487;50.892;6.906;2022-09-01T13:06:50;3.88;;;2.67;;
18716;SDS011;9487;50.892;6.906;2022-09-01T13:09:19;2.75;;;2.55;;
18716;SDS011;9487;50.892;6.906;2022-09-01T13:11:46;2.97;;;2.58;;
18716;SDS011;9487;50.892;6.906;2022-09-01T13:14:13;2.63;;;2.42;;
18716;SDS011;9487;50.892;6.906;2022-09-01T13:16:43;2.85;;;2.60;;
18716;SDS011;9487;50.892;6.906;2022-09-01T13:19:10;2.72;;;2.53;;
18716;SDS011;9487;50.892;6.906;2022-09-01T13:21:37;2.75;;;2.55;;
18716;SDS011;9487;50.892;6.906;2022-09-01T13:24:05;2.78;;;2.58;;
18716;SDS011;9487;50.892;6.906;2022-09-01T13:26:35;2.75;;;2.55;;
18716;SDS011;9487;50.892;6.906;2022-09-01T13:29:02;4.40;;;2.72;;
18716;SDS011;9487;50.892;6.906;2022-09-01T13:31:29;2.75;;;2.55;;
18716;SDS011;9487;50.892;6.906;2022-09-01T13:33:57;3.05;;;2.60;;
18716;SDS011;9487;50.892;6.906;2022-09-01T13:36:24;2.72;;;2.53;;
18716;SDS011;9487;50.892;6.906;2022-09-01T13:38:51;3.05;;;2.42;;
18716;SDS011;9487;50.892;6.906;2022-09-01T13:41:18;2.97;;;2.78;;
18716;SDS011;9487;50.892;6.906;2022-09-01T13:43:46;2.85;;;2.65;;
18716;SDS011;9487;50.892;6.906;2022-09-01T13:46:13;2.95;;;2.67;;
18716;SDS011;9487;50.892;6.906;2022-09-01T13:48:40;2.70;;;2.50;;
18716;SDS011;9487;50.892;6.906;2022-09-01T13:51:08;3.20;;;3.00;;
18716;SDS011;9487;50.892;6.906;2022-09-01T13:53:35;3.10;;;2.67;;
18716;SDS011;9487;50.892;6.906;2022-09-01T13:56:02;2.80;;;2.58;;
18716;SDS011;9487;50.892;6.906;2022-09-01T13:58:29;3.25;;;2.80;;
18716;SDS011;9487;50.892;6.906;2022-09-01T14:00:58;3.85;;;2.75;;
18716;SDS011;9487;50.892;6.906;2022-09-01T14:03:24;3.33;;;2.92;;
18716;SDS011;9487;50.892;6.906;2022-09-01T14:05:51;3.25;;;2.42;;
18716;SDS011;9487;50.892;6.906;2022-09-01T14:08:19;3.28;;;2.72;;
18716;SDS011;9487;50.892;6.906;2022-09-01T14:10:47;2.60;;;2.40;;
18716;SDS011;9487;50.892;6.906;2022-09-01T14:13:17;2.80;;;2.70;;
18716;SDS011;9487;50.892;6.906;2022-09-01T14:15:45;3.90;;;3.05;;
18716;SDS011;9487;50.892;6.906;2022-09-01T14:18:14;4.45;;;2.90;;
18716;SDS011;9487;50.892;6.906;2022-09-01T14:20:42;6.70;;;3.20;;
18716;SDS011;9487;50.892;6.906;2022-09-01T14:23:10;2.85;;;2.65;;
18716;SDS011;9487;50.892;6.906;2022-09-01T14:25:40;4.45;;;3.13;;
18716;SDS011;9487;50.892;6.906;2022-09-01T14:28:08;3.85;;;2.90;;
18716;SDS011;9487;50.892;6.906;2022-09-01T14:30:35;2.92;;;2.72;;
18716;SDS011;9487;50.892;6.906;2022-09-01T14:33:02;3.40;;;3.10;;
18716;SDS011;9487;50.892;6.906;2022-09-01T14:35:30;3.40;;;2.97;;
18716;SDS011;9487;50.892;6.906;2022-09-01T14:37:58;4.38;;;3.13;;
18716;SDS011;9487;50.892;6.906;2022-09-01T14:40:26;2.97;;;2.55;;
18716;SDS011;9487;50.892;6.906;2022-09-01T14:42:53;3.95;;;2.75;;
18716;SDS011;9487;50.892;6.906;2022-09-01T14:45:21;2.65;;;2.30;;
18716;SDS011;9487;50.892;6.906;2022-09-01T14:47:51;3.08;;;2.88;;
18716;SDS011;9487;50.892;6.906;2022-09-01T14:50:21;3.75;;;2.92;;
18716;SDS011;9487;50.892;6.906;2022-09-01T14:52:52;3.25;;;2.95;;
18716;SDS011;9487;50.892;6.906;2022-09-01T14:55:21;3.65;;;3.00;;
18716;SDS011;9487;50.892;6.906;2022-09-01T14:57:49;3.60;;;3.30;;
18716;SDS011;9487;50.892;6.906;2022-09-01T15:00:17;3.17;;;2.92;;
18716;SDS011;9487;50.892;6.906;2022-09-01T15:02:44;3.00;;;2.70;;
18716;SDS011;9487;50.892;6.906;2022-09-01T15:05:12;3.25;;;3.05;;
18716;SDS011;9487;50.892;6.906;2022-09-01T15:07:39;3.60;;;2.60;;
18716;SDS011;9487;50.892;6.906;2022-09-01T15:10:09;3.03;;;2.72;;
18716;SDS011;9487;50.892;6.906;2022-09-01T15:12:37;3.35;;;2.70;;
18716;SDS011;9487;50.892;6.906;2022-09-01T15:15:04;3.40;;;3.10;;
18716;SDS011;9487;50.892;6.906;2022-09-01T15:17:33;4.75;;;2.95;;
18716;SDS011;9487;50.892;6.906;2022-09-01T15:20:01;2.80;;;2.60;;
18716;SDS011;9487;50.892;6.906;2022-09-01T15:22:43;3.63;;;2.72;;
18716;SDS011;9487;50.892;6.906;2022-09-01T15:25:12;3.42;;;2.88;;
18716;SDS011;9487;50.892;6.906;2022-09-01T15:27:39;3.00;;;2.80;;
18716;SDS011;9487;50.892;6.906;2022-09-01T15:30:06;2.63;;;2.53;;
18716;SDS011;9487;50.892;6.906;2022-09-01T15:32:38;3.00;;;2.80;;
18716;SDS011;9487;50.892;6.906;2022-09-01T15:35:05;2.92;;;2.70;;
18716;SDS011;9487;50.892;6.906;2022-09-01T15:37:32;3.50;;;2.92;;
18716;SDS011;9487;50.892;6.906;2022-09-01T15:40:00;3.10;;;2.90;;